createdAt,value
2022-10-22T00:02:20.941Z,3.03
2022-10-22T00:04:48.956Z,2.90
2022-10-22T00:07:16.972Z,2.50
2022-10-22T00:09:43.639Z,3.08
2022-10-22T00:12:10.631Z,3.10
2022-10-22T00:14:37.723Z,3.28
2022-10-22T00:17:06.950Z,3.03
2022-10-22T00:19:38.591Z,3.00
2022-10-22T00:22:05.756Z,3.20
2022-10-22T00:24:33.541Z,3.20
2022-10-22T00:27:00.329Z,3.13
2022-10-22T00:29:27.026Z,2.95
2022-10-22T00:34:25.471Z,3.25
2022-10-22T00:36:52.957Z,3.53
2022-10-22T00:39:22.347Z,3.33
2022-10-22T00:41:50.522Z,3.70
2022-10-22T00:44:54.645Z,3.38
2022-10-22T00:47:24.045Z,3.80
2022-10-22T00:49:51.821Z,3.85
2022-10-22T00:52:18.864Z,3.55
2022-10-22T00:54:45.640Z,2.92
2022-10-22T00:57:12.443Z,3.20
2022-10-22T00:59:39.490Z,2.97
2022-10-22T01:02:06.122Z,2.80
2022-10-22T01:04:32.749Z,3.13
2022-10-22T01:06:59.497Z,3.22
2022-10-22T01:09:32.295Z,2.70
2022-10-22T01:12:03.104Z,2.65
2022-10-22T01:15:01.089Z,3.00
2022-10-22T01:17:36.921Z,3.13
2022-10-22T01:20:37.482Z,3.28
2022-10-22T01:23:25.656Z,3.35
2022-10-22T01:26:25.917Z,3.20
2022-10-22T01:28:52.516Z,3.35
2022-10-22T01:31:22.132Z,3.22
2022-10-22T01:33:51.604Z,3.00
2022-10-22T01:36:19.147Z,3.47
2022-10-22T01:38:47.306Z,3.88
2022-10-22T01:41:15.085Z,3.03
2022-10-22T01:43:41.669Z,3.30
2022-10-22T01:46:11.917Z,2.80
2022-10-22T01:49:03.651Z,3.20
2022-10-22T01:51:51.231Z,3.40
2022-10-22T01:54:24.084Z,2.83
2022-10-22T01:57:23.335Z,3.15
2022-10-22T02:00:09.472Z,2.90
2022-10-22T02:03:08.765Z,3.25
2022-10-22T02:05:49.729Z,3.20
2022-10-22T02:08:21.853Z,3.33
2022-10-22T02:10:50.672Z,2.83
2022-10-22T02:13:28.106Z,2.90
2022-10-22T02:15:55.982Z,3.08
2022-10-22T02:18:26.674Z,3.13
2022-10-22T02:20:54.491Z,3.33
2022-10-22T02:23:22.084Z,2.95
2022-10-22T02:25:55.927Z,2.88
2022-10-22T02:28:31.622Z,3.22
2022-10-22T02:31:10.021Z,3.15
2022-10-22T02:33:46.556Z,3.53
2022-10-22T02:36:14.429Z,3.47
2022-10-22T02:38:42.548Z,3.60
2022-10-22T02:41:09.991Z,3.53
2022-10-22T02:43:44.857Z,3.40
2022-10-22T02:46:11.903Z,3.47
2022-10-22T02:48:38.545Z,3.63
2022-10-22T02:51:05.320Z,3.30
2022-10-22T02:53:32.285Z,3.50
2022-10-22T02:55:59.483Z,3.50
2022-10-22T02:58:26.248Z,3.97
2022-10-22T03:00:52.912Z,3.50
2022-10-22T03:03:19.592Z,3.58
2022-10-22T03:05:46.199Z,3.65
2022-10-22T03:08:13.380Z,3.35
2022-10-22T03:10:39.985Z,4.00
2022-10-22T03:13:06.685Z,3.65
2022-10-22T03:15:33.331Z,4.10
2022-10-22T03:17:59.951Z,3.85
2022-10-22T03:20:26.925Z,4.38
2022-10-22T03:22:53.656Z,4.35
2022-10-22T03:25:24.040Z,4.22
2022-10-22T03:27:52.412Z,4.30
2022-10-22T03:30:19.193Z,4.00
2022-10-22T03:32:45.916Z,4.35
2022-10-22T03:35:12.545Z,4.47
2022-10-22T03:37:40.538Z,3.75
2022-10-22T03:40:08.415Z,4.00
2022-10-22T03:42:35.116Z,3.65
2022-10-22T03:45:01.759Z,3.83
2022-10-22T03:47:28.403Z,4.50
2022-10-22T03:49:55.040Z,3.70
2022-10-22T03:52:21.652Z,3.60
2022-10-22T03:54:48.270Z,4.28
2022-10-22T03:57:14.961Z,3.90
2022-10-22T03:59:44.862Z,4.30
2022-10-22T04:02:12.476Z,3.92
2022-10-22T04:04:39.476Z,4.47
2022-10-22T04:07:07.607Z,4.22
2022-10-22T04:09:35.131Z,4.35
2022-10-22T04:12:02.227Z,4.60
2022-10-22T04:14:28.887Z,4.30
2022-10-22T04:16:55.586Z,4.40
2022-10-22T04:19:22.311Z,4.60
2022-10-22T04:21:49.084Z,4.47
2022-10-22T04:24:15.863Z,4.20
2022-10-22T04:26:42.698Z,4.35
2022-10-22T04:29:13.435Z,4.40
2022-10-22T04:31:42.913Z,4.63
2022-10-22T04:34:09.587Z,3.75
2022-10-22T04:36:36.238Z,3.75
2022-10-22T04:39:04.132Z,4.70
2022-10-22T04:41:33.215Z,4.50
2022-10-22T04:44:00.552Z,4.25
2022-10-22T04:46:29.435Z,4.60
2022-10-22T04:48:56.468Z,3.90
2022-10-22T04:51:25.952Z,4.38
2022-10-22T04:53:53.830Z,3.75
2022-10-22T04:56:29.251Z,3.92
2022-10-22T04:58:58.609Z,3.95
2022-10-22T05:01:28.407Z,3.70
2022-10-22T05:03:57.484Z,3.83
2022-10-22T05:06:25.241Z,3.42
2022-10-22T05:09:00.540Z,3.60
2022-10-22T05:11:30.430Z,3.70
2022-10-22T05:13:58.564Z,2.83
2022-10-22T05:16:26.076Z,3.08
2022-10-22T05:18:53.344Z,2.97
2022-10-22T05:21:21.142Z,3.22
2022-10-22T05:23:50.197Z,3.05
2022-10-22T05:26:19.761Z,2.65
2022-10-22T05:28:48.176Z,2.60
2022-10-22T05:31:15.274Z,3.00
2022-10-22T05:33:42.713Z,2.83
2022-10-22T05:36:13.294Z,2.97
2022-10-22T05:38:40.013Z,2.40
2022-10-22T05:41:09.120Z,2.65
2022-10-22T05:43:36.637Z,2.95
2022-10-22T05:46:12.192Z,2.45
2022-10-22T05:48:38.965Z,2.67
2022-10-22T05:51:08.195Z,2.60
2022-10-22T05:53:37.773Z,2.38
2022-10-22T05:56:07.638Z,2.38
2022-10-22T05:58:35.993Z,2.88
2022-10-22T06:01:11.980Z,2.45
2022-10-22T06:03:38.726Z,2.47
2022-10-22T06:06:14.772Z,2.40
2022-10-22T06:08:41.759Z,2.30
2022-10-22T06:11:08.571Z,2.83
2022-10-22T06:13:35.170Z,2.50
2022-10-22T06:16:01.829Z,2.53
2022-10-22T06:18:28.407Z,2.60
2022-10-22T06:20:55.137Z,1.98
2022-10-22T06:23:21.954Z,2.30
2022-10-22T06:25:59.287Z,2.47
2022-10-22T06:28:26.332Z,2.40
2022-10-22T06:30:52.969Z,2.30
2022-10-22T06:33:19.600Z,2.53
2022-10-22T06:35:48.445Z,2.40
2022-10-22T06:38:15.317Z,2.45
2022-10-22T06:40:45.016Z,2.50
2022-10-22T06:43:12.858Z,2.58
2022-10-22T06:45:39.927Z,2.33
2022-10-22T06:48:07.213Z,2.78
2022-10-22T06:50:37.198Z,2.95
2022-10-22T06:53:03.841Z,2.10
2022-10-22T06:55:30.404Z,2.22
2022-10-22T06:57:57.039Z,2.30
2022-10-22T07:00:23.685Z,2.60
2022-10-22T07:02:56.454Z,2.17
2022-10-22T07:05:25.784Z,1.88
2022-10-22T07:07:52.423Z,2.58
2022-10-22T07:10:19.017Z,2.45
2022-10-22T07:12:45.675Z,2.00
2022-10-22T07:15:12.319Z,1.90
2022-10-22T07:20:07.200Z,1.88
2022-10-22T07:22:33.920Z,2.15
2022-10-22T07:25:05.165Z,2.10
2022-10-22T07:27:34.172Z,2.10
2022-10-22T07:30:01.453Z,1.95
2022-10-22T07:32:28.365Z,1.60
2022-10-22T07:34:54.960Z,1.90
2022-10-22T07:37:22.053Z,1.90
2022-10-22T07:39:49.470Z,1.80
2022-10-22T07:42:16.471Z,2.40
2022-10-22T07:44:43.185Z,2.47
2022-10-22T07:47:09.851Z,1.75
2022-10-22T07:49:36.474Z,2.00
2022-10-22T07:52:03.224Z,1.65
2022-10-22T07:54:29.931Z,2.20
2022-10-22T07:56:56.581Z,1.77
2022-10-22T07:59:23.230Z,2.10
2022-10-22T08:01:49.828Z,1.95
2022-10-22T08:04:16.509Z,2.03
2022-10-22T08:06:45.817Z,1.75
2022-10-22T08:09:14.207Z,2.00
2022-10-22T08:11:40.999Z,1.70
2022-10-22T08:14:07.643Z,2.20
2022-10-22T08:16:34.281Z,2.08
2022-10-22T08:19:00.898Z,1.75
2022-10-22T08:21:27.690Z,1.98
2022-10-22T08:23:54.374Z,1.52
2022-10-22T08:26:21.083Z,1.92
2022-10-22T08:28:47.817Z,2.00
2022-10-22T08:31:14.831Z,1.60
2022-10-22T08:33:41.945Z,2.05
2022-10-22T08:36:08.951Z,1.60
2022-10-22T08:38:35.667Z,1.95
2022-10-22T08:41:28.704Z,1.58
2022-10-22T08:44:09.295Z,2.17
2022-10-22T08:46:38.632Z,1.83
2022-10-22T08:49:12.589Z,1.40
2022-10-22T08:51:40.512Z,1.80
2022-10-22T08:54:19.686Z,1.60
2022-10-22T08:57:14.486Z,2.35
2022-10-22T08:59:50.440Z,1.77
2022-10-22T09:02:33.746Z,1.73
2022-10-22T09:05:23.452Z,1.65
2022-10-22T09:07:50.442Z,2.28
2022-10-22T09:10:19.272Z,1.65
2022-10-22T09:12:47.405Z,1.88
2022-10-22T09:15:17.327Z,1.40
2022-10-22T09:18:05.914Z,1.60
2022-10-22T09:20:41.774Z,3.53
2022-10-22T09:23:22.236Z,1.98
2022-10-22T09:25:51.196Z,2.20
2022-10-22T09:28:18.300Z,1.30
2022-10-22T09:30:45.705Z,1.50
2022-10-22T09:33:24.773Z,1.73
2022-10-22T09:35:54.702Z,1.80
2022-10-22T09:38:34.846Z,1.40
2022-10-22T09:41:03.679Z,1.45
2022-10-22T09:43:31.357Z,1.50
2022-10-22T09:46:01.248Z,1.58
2022-10-22T09:48:31.986Z,1.58
2022-10-22T09:51:25.776Z,1.75
2022-10-22T09:53:58.233Z,1.58
2022-10-22T09:56:40.852Z,1.90
2022-10-22T09:59:15.037Z,1.63
2022-10-22T10:01:42.405Z,1.52
2022-10-22T10:04:11.606Z,2.00
2022-10-22T10:06:40.973Z,1.95
2022-10-22T10:09:21.178Z,1.45
2022-10-22T10:12:09.270Z,2.17
2022-10-22T10:15:05.238Z,2.08
2022-10-22T10:18:05.401Z,1.60
2022-10-22T10:20:52.278Z,1.73
2022-10-22T10:23:35.028Z,1.98
2022-10-22T10:26:13.915Z,1.50
2022-10-22T10:29:06.719Z,1.73
2022-10-22T10:31:58.122Z,3.83
2022-10-22T10:34:46.253Z,1.67
2022-10-22T10:37:24.657Z,2.13
2022-10-22T10:40:21.881Z,2.20
2022-10-22T10:43:17.620Z,1.65
2022-10-22T10:45:54.854Z,1.65
2022-10-22T10:48:31.529Z,1.40
2022-10-22T10:51:03.439Z,1.02
2022-10-22T10:53:36.177Z,1.38
2022-10-22T10:56:05.869Z,1.52
2022-10-22T10:58:57.104Z,2.22
2022-10-22T11:01:42.270Z,1.45
2022-10-22T11:04:30.223Z,1.90
2022-10-22T11:07:11.023Z,1.42
2022-10-22T11:09:54.293Z,1.40
2022-10-22T11:12:27.208Z,1.17
2022-10-22T11:15:08.984Z,1.52
2022-10-22T11:17:42.575Z,1.23
2022-10-22T11:20:23.956Z,1.30
2022-10-22T11:23:18.715Z,1.45
2022-10-22T11:25:48.662Z,1.30
2022-10-22T11:28:25.926Z,1.60
2022-10-22T11:31:17.613Z,1.60
2022-10-22T11:34:04.720Z,1.42
2022-10-22T11:36:33.693Z,1.27
2022-10-22T11:39:03.417Z,1.27
2022-10-22T11:41:32.113Z,1.30
2022-10-22T11:44:11.689Z,1.42
2022-10-22T11:46:46.957Z,1.30
2022-10-22T11:49:13.540Z,1.50
2022-10-22T11:51:42.688Z,1.17
2022-10-22T11:54:42.804Z,1.40
2022-10-22T11:57:15.452Z,1.10
2022-10-22T11:59:47.697Z,1.23
2022-10-22T12:02:40.918Z,1.20
2022-10-22T12:05:24.122Z,1.60
2022-10-22T12:08:00.580Z,1.17
2022-10-22T12:10:48.804Z,1.10
2022-10-22T12:13:24.163Z,1.00
2022-10-22T12:15:54.592Z,1.10
2022-10-22T12:18:25.742Z,1.25
2022-10-22T12:20:53.935Z,1.42
2022-10-22T12:23:26.535Z,1.45
2022-10-22T12:25:53.193Z,1.25
2022-10-22T12:28:20.187Z,1.05
2022-10-22T12:30:47.376Z,1.08
2022-10-22T12:33:22.509Z,1.23
2022-10-22T12:35:52.920Z,1.20
2022-10-22T12:38:22.961Z,1.38
2022-10-22T12:40:54.109Z,1.17
2022-10-22T12:43:29.017Z,1.35
2022-10-22T12:45:57.605Z,0.98
2022-10-22T12:48:28.222Z,0.95
2022-10-22T12:50:58.641Z,0.90
2022-10-22T12:53:33.187Z,1.27
2022-10-22T12:56:03.795Z,0.85
2022-10-22T12:58:38.427Z,1.08
2022-10-22T13:01:05.710Z,1.20
2022-10-22T13:03:40.244Z,1.20
2022-10-22T13:06:23.708Z,1.27
2022-10-22T13:09:02.442Z,1.38
2022-10-22T13:11:41.269Z,1.10
2022-10-22T13:14:24.949Z,1.20
2022-10-22T13:17:10.388Z,1.45
2022-10-22T13:19:45.364Z,1.17
2022-10-22T13:22:38.172Z,1.10
2022-10-22T13:25:17.218Z,1.10
2022-10-22T13:27:52.713Z,0.80
2022-10-22T13:30:27.504Z,0.98
2022-10-22T13:32:57.608Z,1.73
2022-10-22T13:35:27.299Z,1.05
2022-10-22T13:37:54.065Z,0.90
2022-10-22T13:40:21.281Z,0.88
2022-10-22T13:42:47.882Z,1.20
2022-10-22T13:45:15.131Z,1.10
2022-10-22T13:47:44.841Z,1.10
2022-10-22T13:50:15.092Z,1.05
2022-10-22T13:52:47.810Z,1.10
2022-10-22T13:55:25.585Z,1.20
2022-10-22T13:58:14.243Z,1.10
2022-10-22T14:00:46.791Z,1.08
2022-10-22T14:03:17.048Z,1.25
2022-10-22T14:05:46.556Z,0.90
2022-10-22T14:08:19.039Z,1.30
2022-10-22T14:10:46.335Z,1.30
2022-10-22T14:13:15.093Z,1.50
2022-10-22T14:15:43.371Z,1.30
2022-10-22T14:18:15.716Z,1.30
2022-10-22T14:20:42.808Z,0.95
2022-10-22T14:23:22.142Z,1.23
2022-10-22T14:25:50.991Z,1.13
2022-10-22T14:28:17.889Z,1.10
2022-10-22T14:30:45.109Z,1.25
2022-10-22T14:33:11.668Z,1.20
2022-10-22T14:35:38.298Z,1.02
2022-10-22T14:38:04.876Z,1.33
2022-10-22T14:40:31.499Z,1.27
2022-10-22T14:42:58.227Z,1.02
2022-10-22T14:45:27.017Z,1.30
2022-10-22T14:47:57.295Z,1.30
2022-10-22T14:50:25.052Z,1.00
2022-10-22T14:52:52.159Z,1.00
2022-10-22T14:55:19.847Z,1.23
2022-10-22T14:57:46.905Z,1.35
2022-10-22T15:00:16.440Z,1.50
2022-10-22T15:02:43.997Z,1.27
2022-10-22T15:05:11.202Z,1.30
2022-10-22T15:07:38.804Z,1.50
2022-10-22T15:10:07.361Z,1.23
2022-10-22T15:12:34.183Z,1.15
2022-10-22T15:15:00.898Z,1.10
2022-10-22T15:17:28.124Z,1.30
2022-10-22T15:19:56.395Z,1.00
2022-10-22T15:22:23.078Z,1.25
2022-10-22T15:24:49.780Z,1.33
2022-10-22T15:27:16.464Z,1.30
2022-10-22T15:29:43.635Z,1.10
2022-10-22T15:32:10.611Z,0.98
2022-10-22T15:34:39.146Z,1.40
2022-10-22T15:37:08.932Z,1.00
2022-10-22T15:39:35.930Z,1.30
2022-10-22T15:42:02.611Z,1.33
2022-10-22T15:44:30.995Z,1.30
2022-10-22T15:46:58.331Z,1.20
2022-10-22T15:49:27.231Z,1.30
2022-10-22T15:51:54.217Z,1.58
2022-10-22T15:54:25.623Z,1.77
2022-10-22T15:56:52.358Z,1.60
2022-10-22T15:59:19.069Z,1.58
2022-10-22T16:01:46.027Z,1.70
2022-10-22T16:04:12.721Z,1.63
2022-10-22T16:06:42.678Z,1.50
2022-10-22T16:09:15.916Z,1.55
2022-10-22T16:11:43.248Z,1.70
2022-10-22T16:14:12.860Z,1.60
2022-10-22T16:16:43.500Z,1.55
2022-10-22T16:19:14.951Z,1.52
2022-10-22T16:21:41.700Z,1.73
2022-10-22T16:24:09.229Z,2.00
2022-10-22T16:26:36.055Z,2.45
2022-10-22T16:29:03.715Z,3.00
2022-10-22T16:31:30.440Z,4.82
2022-10-22T16:33:57.799Z,5.03
2022-10-22T16:36:24.463Z,5.80
2022-10-22T16:38:51.173Z,6.22
2022-10-22T16:41:20.505Z,7.10
2022-10-22T16:43:48.909Z,5.97
2022-10-22T16:46:20.097Z,6.90
2022-10-22T16:48:51.829Z,4.00
2022-10-22T16:51:20.945Z,3.42
2022-10-22T16:53:47.538Z,3.97
2022-10-22T16:56:16.568Z,4.95
2022-10-22T16:58:54.367Z,5.43
2022-10-22T17:01:24.108Z,6.53
2022-10-22T17:03:50.856Z,5.45
2022-10-22T17:06:17.557Z,5.07
2022-10-22T17:08:44.363Z,5.80
2022-10-22T17:11:17.584Z,6.20
2022-10-22T17:13:45.901Z,6.28
2022-10-22T17:16:15.456Z,6.28
2022-10-22T17:18:43.067Z,6.35
2022-10-22T17:21:11.102Z,6.72
2022-10-22T17:23:38.289Z,6.20
2022-10-22T17:26:07.346Z,6.80
2022-10-22T17:28:36.206Z,5.43
2022-10-22T17:31:08.900Z,5.45
2022-10-22T17:33:36.509Z,6.13
2022-10-22T17:36:09.019Z,5.70
2022-10-22T17:38:35.721Z,5.50
2022-10-22T17:41:04.432Z,5.40
2022-10-22T17:43:35.420Z,5.03
2022-10-22T17:46:07.157Z,5.05
2022-10-22T17:48:34.571Z,5.22
2022-10-22T17:51:01.337Z,5.30
2022-10-22T17:53:27.932Z,5.18
2022-10-22T17:56:02.341Z,5.90
2022-10-22T17:58:31.877Z,5.22
2022-10-22T18:00:58.713Z,6.20
2022-10-22T18:03:27.762Z,6.20
2022-10-22T18:05:54.960Z,5.97
2022-10-22T18:08:23.972Z,6.15
2022-10-22T18:10:50.565Z,6.55
2022-10-22T18:13:17.203Z,7.15
2022-10-22T18:15:43.886Z,7.60
2022-10-22T18:18:10.554Z,6.40
2022-10-22T18:20:37.146Z,6.97
2022-10-22T18:23:03.779Z,5.95
2022-10-22T18:25:31.729Z,8.73
2022-10-22T18:27:58.454Z,9.25
2022-10-22T18:30:25.046Z,7.63
2022-10-22T18:32:51.769Z,7.43
2022-10-22T18:35:18.520Z,7.10
2022-10-22T18:37:45.334Z,6.50
2022-10-22T18:40:14.650Z,6.90
2022-10-22T18:42:41.903Z,6.55
2022-10-22T18:45:09.272Z,9.02
2022-10-22T18:47:40.045Z,13.48
2022-10-22T18:50:07.405Z,12.38
2022-10-22T18:52:34.349Z,12.05
2022-10-22T18:55:01.000Z,13.00
2022-10-22T18:57:27.599Z,16.17
2022-10-22T18:59:57.140Z,13.45
2022-10-22T19:02:26.270Z,12.65
2022-10-22T19:04:52.854Z,13.23
2022-10-22T19:07:19.514Z,14.52
2022-10-22T19:09:46.113Z,12.23
2022-10-22T19:12:15.026Z,12.75
2022-10-22T19:14:42.635Z,12.57
2022-10-22T19:17:09.310Z,12.98
2022-10-22T19:19:35.916Z,13.55
2022-10-22T19:22:02.486Z,12.93
2022-10-22T19:24:29.197Z,10.68
2022-10-22T19:26:55.907Z,13.23
2022-10-22T19:29:22.672Z,12.73
2022-10-22T19:31:50.885Z,12.90
2022-10-22T19:34:18.587Z,11.80
2022-10-22T19:36:45.327Z,11.85
2022-10-22T19:39:16.258Z,12.48
2022-10-22T19:41:43.317Z,12.48
2022-10-22T19:44:10.446Z,12.55
2022-10-22T19:46:37.219Z,10.95
2022-10-22T19:49:04.720Z,10.85
2022-10-22T19:51:33.776Z,10.88
2022-10-22T19:54:06.130Z,9.98
2022-10-22T19:56:34.016Z,8.70
2022-10-22T19:59:00.890Z,10.10
2022-10-22T20:01:27.597Z,9.80
2022-10-22T20:03:54.309Z,11.07
2022-10-22T20:06:21.900Z,12.25
2022-10-22T20:08:51.072Z,11.10
2022-10-22T20:11:24.094Z,11.63
2022-10-22T20:13:52.330Z,11.82
2022-10-22T20:16:25.050Z,10.25
2022-10-22T20:18:52.537Z,10.30
2022-10-22T20:21:20.066Z,10.40
2022-10-22T20:23:48.000Z,11.07
2022-10-22T20:26:14.632Z,11.30
2022-10-22T20:28:41.273Z,14.35
2022-10-22T20:31:12.877Z,13.13
2022-10-22T20:33:39.604Z,10.10
2022-10-22T20:36:08.811Z,10.77
2022-10-22T20:41:06.928Z,12.63
2022-10-22T20:43:34.358Z,10.95
2022-10-22T20:46:01.437Z,11.40
2022-10-22T20:48:31.323Z,11.60
2022-10-22T20:50:59.345Z,11.63
2022-10-22T20:53:26.983Z,11.50
2022-10-22T20:55:57.188Z,12.50
2022-10-22T20:58:26.694Z,11.15
2022-10-22T21:00:55.261Z,11.45
2022-10-22T21:03:22.248Z,11.18
2022-10-22T21:05:49.159Z,12.80
2022-10-22T21:08:18.552Z,13.02
2022-10-22T21:10:46.401Z,10.95
2022-10-22T21:13:13.835Z,14.52
2022-10-22T21:15:40.684Z,9.52
2022-10-22T21:18:07.732Z,11.07
2022-10-22T21:20:34.722Z,12.02
2022-10-22T21:23:01.450Z,12.68
2022-10-22T21:25:28.109Z,13.23
2022-10-22T21:27:54.668Z,12.57
2022-10-22T21:30:21.299Z,11.60
2022-10-22T21:32:47.944Z,11.88
2022-10-22T21:35:14.702Z,11.38
2022-10-22T21:37:41.625Z,11.95
2022-10-22T21:40:08.969Z,12.18
2022-10-22T21:42:35.805Z,10.80
2022-10-22T21:45:02.483Z,11.63
2022-10-22T21:47:29.166Z,12.60
2022-10-22T21:49:55.776Z,10.50
2022-10-22T21:52:22.454Z,9.98
2022-10-22T21:54:49.030Z,9.40
2022-10-22T21:57:15.681Z,9.45
2022-10-22T21:59:42.281Z,10.20
2022-10-22T22:02:09.087Z,9.38
2022-10-22T22:04:35.737Z,9.13
2022-10-22T22:07:02.365Z,7.13
2022-10-22T22:09:28.976Z,7.75
2022-10-22T22:11:56.177Z,7.60
2022-10-22T22:14:22.853Z,7.32
2022-10-22T22:16:49.486Z,8.63
2022-10-22T22:19:16.125Z,9.20
2022-10-22T22:21:42.712Z,8.35
2022-10-22T22:24:12.661Z,9.07
2022-10-22T22:26:39.924Z,9.48
2022-10-22T22:29:06.711Z,9.40
2022-10-22T22:31:34.912Z,9.13
2022-10-22T22:34:04.584Z,8.82
2022-10-22T22:36:39.519Z,8.80
2022-10-22T22:39:07.813Z,7.68
2022-10-22T22:41:34.797Z,8.13
2022-10-22T22:44:01.483Z,8.45
2022-10-22T22:46:28.440Z,8.35
2022-10-22T22:48:55.266Z,8.23
2022-10-22T22:51:21.919Z,8.00
2022-10-22T22:53:48.559Z,7.72
2022-10-22T22:56:23.910Z,7.30
2022-10-22T22:58:50.577Z,6.53
2022-10-22T23:01:17.277Z,7.43
2022-10-22T23:03:46.670Z,6.60
2022-10-22T23:06:14.995Z,7.50
2022-10-22T23:08:42.109Z,7.63
2022-10-22T23:11:12.268Z,6.88
2022-10-22T23:13:40.002Z,6.00
2022-10-22T23:16:15.153Z,6.63
2022-10-22T23:18:42.587Z,6.55
2022-10-22T23:21:24.839Z,6.13
2022-10-22T23:23:53.912Z,6.38
2022-10-22T23:26:23.580Z,6.40
2022-10-22T23:28:50.320Z,5.85
2022-10-22T23:31:18.954Z,6.28
2022-10-22T23:33:46.021Z,6.18
2022-10-22T23:36:13.312Z,6.03
2022-10-22T23:38:40.853Z,5.50
2022-10-22T23:41:07.976Z,5.88
2022-10-22T23:43:36.062Z,6.40
2022-10-22T23:46:04.495Z,5.22
2022-10-22T23:48:31.242Z,5.57
2022-10-22T23:50:58.062Z,4.72
2022-10-22T23:53:24.731Z,5.20
2022-10-22T23:55:51.335Z,5.47
2022-10-22T23:58:18.004Z,5.75
